Time;durP1;ratioP1;P1;durP2;ratioP2;P2;SDS_P1;SDS_P2;PMS_P1;PMS_P2;Temp;Humidity;BMP_temperature;BMP_pressure;BME280_temperature;BME280_humidity;BME280_pressure;Samples;Min_cycle;Max_cycle;Signal;HPM_P1;HPM_P2
2023/07/25 00:02:12;;;;;;;3.72;1.30;;;;;;;;;;5073474;28;20063;-81
2023/07/25 00:04:37;;;;;;;2.38;1.30;;;;;;;;;;5056142;28;20043;-80
2023/07/25 00:07:03;;;;;;;2.30;1.35;;;;;;;;;;5056069;28;20035;-80
2023/07/25 00:09:28;;;;;;;2.63;1.33;;;;;;;;;;5056188;28;20412;-80
2023/07/25 00:11:54;;;;;;;3.50;1.23;;;;;;;;;;5072683;28;20047;-80
2023/07/25 00:14:19;;;;;;;2.28;1.30;;;;;;;;;;5073198;28;20084;-80
2023/07/25 00:16:44;;;;;;;3.97;1.40;;;;;;;;;;5055696;28;20032;-80
2023/07/25 00:19:10;;;;;;;1.67;1.10;;;;;;;;;;5073700;28;20036;-80
2023/07/25 00:21:35;;;;;;;8.65;1.63;;;;;;;;;;5056375;28;20074;-80
2023/07/25 00:24:01;;;;;;;1.77;1.40;;;;;;;;;;5074209;28;20035;-80
2023/07/25 00:26:26;;;;;;;2.95;1.50;;;;;;;;;;5072502;28;20117;-81
2023/07/25 00:28:52;;;;;;;3.65;1.67;;;;;;;;;;5072642;28;20028;-81
2023/07/25 00:31:17;;;;;;;3.03;1.33;;;;;;;;;;5074028;28;20443;-80
2023/07/25 00:33:43;;;;;;;6.30;1.38;;;;;;;;;;5074158;28;20043;-81
2023/07/25 00:36:08;;;;;;;1.90;1.30;;;;;;;;;;5074020;28;20111;-81
2023/07/25 00:38:34;;;;;;;3.90;1.70;;;;;;;;;;5072594;28;20111;-80
2023/07/25 00:40:59;;;;;;;5.47;1.63;;;;;;;;;;5073478;28;20108;-82
2023/07/25 00:43:25;;;;;;;3.38;1.50;;;;;;;;;;5073843;28;20055;-80
2023/07/25 00:45:51;;;;;;;2.38;1.20;;;;;;;;;;5072317;28;20386;-81
2023/07/25 00:48:16;;;;;;;3.72;1.48;;;;;;;;;;5072197;28;20029;-81
2023/07/25 00:50:41;;;;;;;2.08;1.20;;;;;;;;;;5055149;28;20090;-81
2023/07/25 00:53:09;;;;;;;2.72;1.33;;;;;;;;;;5073189;28;20036;-80
2023/07/25 00:55:35;;;;;;;2.33;1.33;;;;;;;;;;5072584;28;20028;-80
2023/07/25 00:58:00;;;;;;;5.38;1.85;;;;;;;;;;5072026;28;20517;-81
2023/07/25 01:00:26;;;;;;;2.45;1.50;;;;;;;;;;5072118;28;20040;-80
2023/07/25 01:02:52;;;;;;;3.33;1.60;;;;;;;;;;5088772;28;20037;-81
2023/07/25 01:05:18;;;;;;;2.65;1.30;;;;;;;;;;5074830;28;20485;-80
2023/07/25 01:07:43;;;;;;;2.85;1.35;;;;;;;;;;5073488;28;20085;-80
2023/07/25 01:10:09;;;;;;;3.40;1.67;;;;;;;;;;5071927;28;20383;-79
2023/07/25 01:12:34;;;;;;;3.90;1.75;;;;;;;;;;5072216;28;20028;-79
2023/07/25 01:15:00;;;;;;;4.43;1.40;;;;;;;;;;5073531;28;20074;-79
2023/07/25 01:17:26;;;;;;;3.38;1.27;;;;;;;;;;5072198;28;20328;-80
2023/07/25 01:19:52;;;;;;;3.50;1.33;;;;;;;;;;5071897;28;20044;-80
2023/07/25 01:22:18;;;;;;;2.00;1.23;;;;;;;;;;5072155;28;20090;-80
2023/07/25 01:24:45;;;;;;;1.83;1.23;;;;;;;;;;5057562;28;20053;-81
2023/07/25 01:27:11;;;;;;;3.30;1.70;;;;;;;;;;5072166;28;20099;-79
2023/07/25 01:29:37;;;;;;;3.78;1.38;;;;;;;;;;5073262;28;20479;-80
2023/07/25 01:32:03;;;;;;;2.22;1.48;;;;;;;;;;5073478;28;20117;-80
2023/07/25 01:34:28;;;;;;;4.45;1.70;;;;;;;;;;5073780;28;20033;-80
2023/07/25 01:36:54;;;;;;;2.65;1.50;;;;;;;;;;5076949;28;20028;-81
2023/07/25 01:39:19;;;;;;;2.20;1.25;;;;;;;;;;5073531;28;20043;-80
2023/07/25 01:41:45;;;;;;;2.40;1.40;;;;;;;;;;5074975;28;20037;-80
2023/07/25 01:44:11;;;;;;;1.92;1.40;;;;;;;;;;5055115;28;20029;-79
2023/07/25 01:46:41;;;;;;;2.15;1.35;;;;;;;;;;5071801;28;20033;-80
2023/07/25 01:49:09;;;;;;;2.35;1.30;;;;;;;;;;5071721;28;20048;-82
2023/07/25 01:51:34;;;;;;;1.70;1.25;;;;;;;;;;5071696;28;20063;-80
2023/07/25 01:54:00;;;;;;;3.42;1.52;;;;;;;;;;5071658;28;20033;-80
2023/07/25 01:56:25;;;;;;;3.03;1.45;;;;;;;;;;5072753;28;20025;-79
2023/07/25 01:58:51;;;;;;;3.22;1.40;;;;;;;;;;5072672;28;20518;-81
2023/07/25 02:01:16;;;;;;;3.63;1.67;;;;;;;;;;5072567;28;20060;-82
2023/07/25 02:03:41;;;;;;;2.20;1.40;;;;;;;;;;5076914;28;20403;-81
2023/07/25 02:06:07;;;;;;;3.53;1.73;;;;;;;;;;5075416;28;20467;-80
2023/07/25 02:08:32;;;;;;;2.70;1.35;;;;;;;;;;5074917;28;20113;-81
2023/07/25 02:11:01;;;;;;;3.45;1.40;;;;;;;;;;5076370;28;20032;-81
2023/07/25 02:13:26;;;;;;;2.13;1.30;;;;;;;;;;5075341;28;20039;-81
2023/07/25 02:15:52;;;;;;;2.85;1.45;;;;;;;;;;5077428;28;20028;-81
2023/07/25 02:18:17;;;;;;;1.77;1.30;;;;;;;;;;5076114;28;20028;-81
2023/07/25 02:20:42;;;;;;;2.85;1.45;;;;;;;;;;5076215;28;20482;-81
2023/07/25 02:23:08;;;;;;;2.45;1.50;;;;;;;;;;5076040;28;20151;-81
2023/07/25 02:25:33;;;;;;;3.42;1.52;;;;;;;;;;5076153;28;20040;-81
2023/07/25 02:27:59;;;;;;;2.03;1.38;;;;;;;;;;5074809;28;20039;-81
2023/07/25 02:30:24;;;;;;;2.30;1.40;;;;;;;;;;5074647;28;20099;-81
2023/07/25 02:32:49;;;;;;;2.47;1.50;;;;;;;;;;5091375;28;20028;-81
2023/07/25 02:35:15;;;;;;;2.60;1.48;;;;;;;;;;5077762;28;20032;-82
2023/07/25 02:37:41;;;;;;;2.17;1.42;;;;;;;;;;5075516;28;20063;-80
2023/07/25 02:40:07;;;;;;;1.67;1.27;;;;;;;;;;5074230;28;20044;-81
2023/07/25 02:42:33;;;;;;;2.95;1.30;;;;;;;;;;5075384;28;20092;-80
2023/07/25 02:44:58;;;;;;;1.60;1.40;;;;;;;;;;5076087;28;20032;-80
2023/07/25 02:47:24;;;;;;;3.97;1.83;;;;;;;;;;5057555;28;20086;-80
2023/07/25 02:49:49;;;;;;;1.50;1.30;;;;;;;;;;5057478;28;20040;-81
2023/07/25 02:52:14;;;;;;;2.88;1.58;;;;;;;;;;5074211;28;20037;-81
2023/07/25 02:54:40;;;;;;;1.77;1.50;;;;;;;;;;5074131;28;20029;-80
2023/07/25 02:57:06;;;;;;;2.25;1.50;;;;;;;;;;5057331;28;20032;-81
2023/07/25 02:59:31;;;;;;;1.63;1.42;;;;;;;;;;5075255;28;20032;-81
2023/07/25 03:01:57;;;;;;;2.13;1.33;;;;;;;;;;5074204;28;20119;-81
2023/07/25 03:04:22;;;;;;;1.67;1.15;;;;;;;;;;5073819;28;20048;-81
2023/07/25 03:06:47;;;;;;;2.97;1.65;;;;;;;;;;5074124;28;20040;-80
2023/07/25 03:09:13;;;;;;;1.88;1.27;;;;;;;;;;5074743;28;20055;-80
2023/07/25 03:11:38;;;;;;;1.75;1.23;;;;;;;;;;5074909;28;20039;-81
2023/07/25 03:14:04;;;;;;;2.75;1.60;;;;;;;;;;5057001;28;20028;-81
2023/07/25 03:16:29;;;;;;;2.00;1.45;;;;;;;;;;5075054;28;20425;-81
2023/07/25 03:18:54;;;;;;;5.57;2.38;;;;;;;;;;5073842;28;20085;-81
2023/07/25 03:21:20;;;;;;;2.30;1.25;;;;;;;;;;5074665;28;20043;-81
2023/07/25 03:23:45;;;;;;;1.50;1.30;;;;;;;;;;5074832;28;20391;-81
2023/07/25 03:26:11;;;;;;;1.52;1.35;;;;;;;;;;5073776;28;20029;-82
2023/07/25 03:28:36;;;;;;;3.03;1.55;;;;;;;;;;5073566;28;20056;-81
2023/07/25 03:31:01;;;;;;;2.08;1.35;;;;;;;;;;5074957;28;20113;-81
2023/07/25 03:33:30;;;;;;;2.38;1.70;;;;;;;;;;5073200;28;20032;-81
2023/07/25 03:35:55;;;;;;;1.70;1.23;;;;;;;;;;5073222;28;20403;-80
2023/07/25 03:38:21;;;;;;;2.85;1.50;;;;;;;;;;5073520;28;20033;-81
2023/07/25 03:40:46;;;;;;;1.65;1.40;;;;;;;;;;5072902;28;20128;-80
2023/07/25 03:43:12;;;;;;;2.05;1.33;;;;;;;;;;5073299;28;20220;-80
2023/07/25 03:45:37;;;;;;;1.48;1.30;;;;;;;;;;5074436;28;20028;-80
2023/07/25 03:48:03;;;;;;;1.73;1.40;;;;;;;;;;5074638;28;20493;-81
2023/07/25 03:50:29;;;;;;;2.13;1.40;;;;;;;;;;5072966;28;20061;-80
2023/07/25 03:52:58;;;;;;;2.38;1.42;;;;;;;;;;5072749;28;20475;-80
2023/07/25 03:55:23;;;;;;;1.55;1.33;;;;;;;;;;5072579;28;20023;-80
2023/07/25 03:57:48;;;;;;;1.98;1.25;;;;;;;;;;5072754;28;20029;-80
2023/07/25 04:00:14;;;;;;;2.72;1.40;;;;;;;;;;5073964;28;20062;-80
2023/07/25 04:02:39;;;;;;;1.83;1.50;;;;;;;;;;5074879;28;20082;-80
2023/07/25 04:05:05;;;;;;;1.80;1.60;;;;;;;;;;5073407;28;20039;-80
2023/07/25 04:07:31;;;;;;;2.10;1.42;;;;;;;;;;5073874;28;20404;-80
2023/07/25 04:09:56;;;;;;;1.83;1.30;;;;;;;;;;5073310;28;20063;-81
2023/07/25 04:12:21;;;;;;;1.80;1.20;;;;;;;;;;5056520;28;20036;-80
2023/07/25 04:14:47;;;;;;;1.58;1.15;;;;;;;;;;5073511;28;20028;-80
2023/07/25 04:17:12;;;;;;;2.30;1.20;;;;;;;;;;5074676;28;20028;-79
2023/07/25 04:19:37;;;;;;;3.00;1.30;;;;;;;;;;5073728;28;20090;-80
2023/07/25 04:22:03;;;;;;;5.35;1.40;;;;;;;;;;5074432;28;20029;-80
2023/07/25 04:24:28;;;;;;;2.72;1.30;;;;;;;;;;5073899;28;20032;-80
2023/07/25 04:26:54;;;;;;;3.22;1.70;;;;;;;;;;5074356;28;20032;-80
2023/07/25 04:29:19;;;;;;;5.47;1.33;;;;;;;;;;5056248;28;20025;-80
2023/07/25 04:31:44;;;;;;;2.58;1.50;;;;;;;;;;5072793;28;20536;-81
2023/07/25 04:34:10;;;;;;;3.95;1.40;;;;;;;;;;5073161;28;20039;-81
2023/07/25 04:36:35;;;;;;;2.47;1.40;;;;;;;;;;5074456;28;20032;-80
2023/07/25 04:39:01;;;;;;;2.03;1.40;;;;;;;;;;5074244;28;20058;-81
2023/07/25 04:41:26;;;;;;;3.50;1.90;;;;;;;;;;5072712;28;20036;-81
2023/07/25 04:43:51;;;;;;;3.53;1.73;;;;;;;;;;5089669;28;20032;-80
2023/07/25 04:46:17;;;;;;;2.33;1.30;;;;;;;;;;5074214;28;20479;-81
2023/07/25 04:48:42;;;;;;;5.60;1.60;;;;;;;;;;5073038;28;20040;-81
2023/07/25 04:51:08;;;;;;;2.42;1.58;;;;;;;;;;5055793;28;20094;-81
2023/07/25 04:53:34;;;;;;;2.28;1.33;;;;;;;;;;5074080;28;20460;-80
2023/07/25 04:55:59;;;;;;;2.75;1.40;;;;;;;;;;5072941;28;20030;-81
2023/07/25 04:58:24;;;;;;;5.15;1.30;;;;;;;;;;5072894;28;20028;-81
2023/07/25 05:00:50;;;;;;;1.98;1.40;;;;;;;;;;5074194;28;20145;-81
2023/07/25 05:03:15;;;;;;;2.33;1.60;;;;;;;;;;5072472;28;20037;-81
2023/07/25 05:05:40;;;;;;;3.50;1.48;;;;;;;;;;5072445;28;20149;-81
2023/07/25 05:08:06;;;;;;;2.30;1.35;;;;;;;;;;5055755;28;20114;-82
2023/07/25 05:10:31;;;;;;;2.45;1.52;;;;;;;;;;5073573;28;20112;-82
2023/07/25 05:12:57;;;;;;;5.13;1.40;;;;;;;;;;5073475;28;20043;-82
2023/07/25 05:15:23;;;;;;;5.57;1.70;;;;;;;;;;5073482;28;20025;-82
2023/07/25 05:17:48;;;;;;;3.55;1.45;;;;;;;;;;5055494;28;20032;-81
2023/07/25 05:20:13;;;;;;;5.82;1.80;;;;;;;;;;5071999;28;20442;-81
2023/07/25 05:22:39;;;;;;;3.25;1.67;;;;;;;;;;5072518;28;20034;-81
2023/07/25 05:25:04;;;;;;;3.97;1.40;;;;;;;;;;5072237;28;20048;-81
2023/07/25 05:27:30;;;;;;;2.10;1.50;;;;;;;;;;5073320;28;20028;-81
2023/07/25 05:29:55;;;;;;;2.92;1.42;;;;;;;;;;5073659;28;20035;-81
2023/07/25 05:32:22;;;;;;;3.33;1.50;;;;;;;;;;5073334;28;20052;-81
2023/07/25 05:34:47;;;;;;;2.38;1.50;;;;;;;;;;5072391;28;20016;-81
2023/07/25 05:37:12;;;;;;;3.25;1.67;;;;;;;;;;5071661;28;20472;-81
2023/07/25 05:39:38;;;;;;;3.53;1.42;;;;;;;;;;5072116;28;20032;-81
2023/07/25 05:42:03;;;;;;;2.22;1.30;;;;;;;;;;5073564;28;20028;-81
2023/07/25 05:44:29;;;;;;;2.83;1.75;;;;;;;;;;5055283;28;20029;-81
2023/07/25 05:46:54;;;;;;;1.80;1.30;;;;;;;;;;5072301;28;20471;-80
2023/07/25 05:49:20;;;;;;;2.60;1.40;;;;;;;;;;5073139;28;20025;-82
2023/07/25 05:51:45;;;;;;;3.80;1.58;;;;;;;;;;5055110;28;20390;-82
2023/07/25 05:54:10;;;;;;;3.60;1.60;;;;;;;;;;5072495;28;20033;-83
2023/07/25 05:56:36;;;;;;;2.75;1.60;;;;;;;;;;5073323;28;20116;-81
2023/07/25 05:59:01;;;;;;;3.58;1.88;;;;;;;;;;5071893;28;20033;-79
2023/07/25 06:01:27;;;;;;;3.50;2.13;;;;;;;;;;5072457;28;20086;-78
2023/07/25 06:03:52;;;;;;;4.47;1.83;;;;;;;;;;5071626;28;20043;-78
2023/07/25 06:06:17;;;;;;;6.85;2.35;;;;;;;;;;5073401;28;20379;-77
2023/07/25 06:08:43;;;;;;;4.75;2.60;;;;;;;;;;5071431;28;20247;-78
2023/07/25 06:11:08;;;;;;;9.05;2.58;;;;;;;;;;5071568;28;20398;-80
2023/07/25 06:13:34;;;;;;;7.47;3.53;;;;;;;;;;5071811;28;20032;-78
2023/07/25 06:15:59;;;;;;;7.80;2.95;;;;;;;;;;5054965;28;20031;-78
2023/07/25 06:18:25;;;;;;;6.63;2.55;;;;;;;;;;5073164;28;20454;-78
2023/07/25 06:20:50;;;;;;;7.05;2.28;;;;;;;;;;5073176;28;20025;-78
2023/07/25 06:23:16;;;;;;;5.38;2.70;;;;;;;;;;5071866;28;20032;-78
2023/07/25 06:25:41;;;;;;;4.47;2.10;;;;;;;;;;5054768;28;20063;-76
2023/07/25 06:28:06;;;;;;;8.30;2.33;;;;;;;;;;5072768;28;20021;-76
2023/07/25 06:30:32;;;;;;;5.38;2.20;;;;;;;;;;5072820;28;20142;-79
2023/07/25 06:32:57;;;;;;;6.07;2.38;;;;;;;;;;5071561;28;20104;-78
2023/07/25 06:35:23;;;;;;;7.38;2.28;;;;;;;;;;5071895;28;20383;-78
2023/07/25 06:37:48;;;;;;;5.88;1.92;;;;;;;;;;5071519;28;20044;-78
2023/07/25 06:40:14;;;;;;;8.50;2.58;;;;;;;;;;5054933;28;20391;-78
2023/07/25 06:42:39;;;;;;;7.60;2.10;;;;;;;;;;5071553;28;20437;-79
2023/07/25 06:45:05;;;;;;;3.95;1.63;;;;;;;;;;5073027;28;20115;-80
2023/07/25 06:47:30;;;;;;;4.18;2.00;;;;;;;;;;5055378;28;20039;-80
2023/07/25 06:49:56;;;;;;;6.20;1.52;;;;;;;;;;5076228;28;20135;-79
2023/07/25 06:52:21;;;;;;;6.45;1.73;;;;;;;;;;5058185;28;20040;-79
2023/07/25 06:54:47;;;;;;;2.88;1.20;;;;;;;;;;5076367;28;20032;-79
2023/07/25 06:57:13;;;;;;;5.75;1.63;;;;;;;;;;5076132;28;20097;-78
2023/07/25 06:59:38;;;;;;;3.78;1.40;;;;;;;;;;5084125;28;20040;-78
2023/07/25 07:02:04;;;;;;;4.25;1.58;;;;;;;;;;5064767;28;20091;-78
2023/07/25 07:04:29;;;;;;;7.43;1.58;;;;;;;;;;5061912;28;20032;-88
2023/07/25 07:06:55;;;;;;;4.43;1.40;;;;;;;;;;5074842;28;20078;-78
2023/07/25 07:09:21;;;;;;;7.28;1.45;;;;;;;;;;5075732;28;20451;-78
2023/07/25 07:11:46;;;;;;;2.47;1.40;;;;;;;;;;5075341;28;20056;-79
2023/07/25 07:14:11;;;;;;;49.60;9.18;;;;;;;;;;5076293;28;20024;-80
2023/07/25 07:16:37;;;;;;;26.45;5.95;;;;;;;;;;5075777;28;20078;-79
2023/07/25 07:19:03;;;;;;;19.23;4.07;;;;;;;;;;5074370;28;20111;-78
2023/07/25 07:21:29;;;;;;;27.42;5.18;;;;;;;;;;5074862;28;20044;-79
2023/07/25 07:23:54;;;;;;;19.30;4.25;;;;;;;;;;5075623;28;20388;-78
2023/07/25 07:26:20;;;;;;;18.50;4.53;;;;;;;;;;5075988;28;20032;-79
2023/07/25 07:28:45;;;;;;;12.95;4.07;;;;;;;;;;5074168;28;20025;-79
2023/07/25 07:31:12;;;;;;;19.13;4.65;;;;;;;;;;5074319;28;20389;-79
2023/07/25 07:33:38;;;;;;;18.15;4.00;;;;;;;;;;5075400;28;20028;-79
2023/07/25 07:36:03;;;;;;;8.95;2.90;;;;;;;;;;5075652;28;20032;-79
2023/07/25 07:38:29;;;;;;;11.15;3.25;;;;;;;;;;5075648;28;20032;-79
2023/07/25 07:40:54;;;;;;;16.50;3.63;;;;;;;;;;5073841;28;20387;-80
2023/07/25 07:43:20;;;;;;;6.63;2.03;;;;;;;;;;5074057;28;20054;-79
2023/07/25 07:45:46;;;;;;;6.57;2.00;;;;;;;;;;5073952;28;20394;-78
2023/07/25 07:48:11;;;;;;;8.23;2.28;;;;;;;;;;5057445;28;20123;-79
2023/07/25 07:50:37;;;;;;;6.30;2.10;;;;;;;;;;5057205;28;20111;-78
2023/07/25 07:53:03;;;;;;;6.20;2.15;;;;;;;;;;5073847;28;20098;-78
2023/07/25 07:55:28;;;;;;;6.45;1.98;;;;;;;;;;5074188;28;20036;-76
2023/07/25 07:57:55;;;;;;;8.65;2.20;;;;;;;;;;5075665;28;20028;-76
2023/07/25 08:00:20;;;;;;;5.28;1.73;;;;;;;;;;5074265;28;20103;-78
2023/07/25 08:02:46;;;;;;;7.60;2.00;;;;;;;;;;5075222;28;20470;-79
2023/07/25 08:05:12;;;;;;;8.45;1.67;;;;;;;;;;5057178;28;20170;-77
2023/07/25 08:07:37;;;;;;;5.60;1.90;;;;;;;;;;5073093;28;20051;-79
2023/07/25 08:10:03;;;;;;;10.95;2.92;;;;;;;;;;5073329;28;20033;-77
2023/07/25 08:12:29;;;;;;;5.57;2.00;;;;;;;;;;5073307;28;20120;-79
2023/07/25 08:14:54;;;;;;;10.85;2.35;;;;;;;;;;5074531;28;20029;-76
2023/07/25 08:17:20;;;;;;;10.20;2.60;;;;;;;;;;5074594;28;20557;-76
2023/07/25 08:19:45;;;;;;;7.43;2.35;;;;;;;;;;5073066;28;20043;-78
2023/07/25 08:22:11;;;;;;;10.48;2.60;;;;;;;;;;5074918;28;20059;-76
2023/07/25 08:24:37;;;;;;;9.93;2.67;;;;;;;;;;5074562;28;20060;-79
2023/07/25 08:27:03;;;;;;;16.23;3.60;;;;;;;;;;5073451;28;20039;-79
2023/07/25 08:29:28;;;;;;;12.70;3.03;;;;;;;;;;5073050;28;20033;-78
2023/07/25 08:31:54;;;;;;;8.43;2.63;;;;;;;;;;5072940;28;20071;-78
2023/07/25 08:34:20;;;;;;;8.18;2.60;;;;;;;;;;5074793;28;20090;-77
2023/07/25 08:36:46;;;;;;;7.05;1.75;;;;;;;;;;5073099;28;20368;-77
2023/07/25 08:39:11;;;;;;;9.90;2.40;;;;;;;;;;5073130;28;20028;-77
2023/07/25 08:41:40;;;;;;;5.45;1.73;;;;;;;;;;5074477;28;20070;-79
2023/07/25 08:44:09;;;;;;;7.00;2.25;;;;;;;;;;5073121;28;20025;-79
2023/07/25 08:46:35;;;;;;;7.22;2.45;;;;;;;;;;5056186;28;20119;-79
2023/07/25 08:49:02;;;;;;;8.13;2.28;;;;;;;;;;5056014;28;20062;-79
2023/07/25 08:51:28;;;;;;;6.55;1.70;;;;;;;;;;5072871;28;20036;-79
2023/07/25 08:54:02;;;;;;;10.20;2.47;;;;;;;;;;5072841;28;20033;-76
2023/07/25 08:56:28;;;;;;;4.03;1.70;;;;;;;;;;5072961;28;20372;-79
2023/07/25 08:58:54;;;;;;;7.47;1.90;;;;;;;;;;5072514;28;20031;-79
2023/07/25 09:01:21;;;;;;;6.53;1.52;;;;;;;;;;5056034;28;20032;-79
2023/07/25 09:03:47;;;;;;;6.63;1.58;;;;;;;;;;5072924;28;20043;-78
2023/07/25 09:06:13;;;;;;;5.78;1.40;;;;;;;;;;5074796;28;20074;-76
2023/07/25 09:08:39;;;;;;;4.32;1.17;;;;;;;;;;5056672;28;20115;-78
2023/07/25 09:11:04;;;;;;;4.10;0.90;;;;;;;;;;5072642;28;20056;-78
2023/07/25 09:13:30;;;;;;;2.42;1.00;;;;;;;;;;5072832;28;20025;-79
2023/07/25 09:15:55;;;;;;;3.58;1.00;;;;;;;;;;5072544;28;20494;-79
2023/07/25 09:18:21;;;;;;;8.10;1.25;;;;;;;;;;5073906;28;20055;-79
2023/07/25 09:20:46;;;;;;;14.52;1.33;;;;;;;;;;5073272;28;20454;-79
2023/07/25 09:23:20;;;;;;;6.30;1.70;;;;;;;;;;5072607;28;20365;-79
2023/07/25 09:25:45;;;;;;;11.65;1.48;;;;;;;;;;5072895;28;20025;-80
2023/07/25 09:28:10;;;;;;;23.02;1.75;;;;;;;;;;5074417;28;20387;-80
2023/07/25 09:30:36;;;;;;;7.85;1.15;;;;;;;;;;5074378;28;20033;-80
2023/07/25 09:33:01;;;;;;;5.10;1.70;;;;;;;;;;5074558;28;20029;-80
2023/07/25 09:35:27;;;;;;;8.70;1.50;;;;;;;;;;5072346;28;20032;-80
2023/07/25 09:37:54;;;;;;;4.10;1.45;;;;;;;;;;5073038;28;20029;-80
2023/07/25 09:40:19;;;;;;;8.60;1.48;;;;;;;;;;5074534;28;20116;-79
2023/07/25 09:42:46;;;;;;;4.55;1.20;;;;;;;;;;5073197;28;20109;-80
2023/07/25 09:45:12;;;;;;;7.13;1.10;;;;;;;;;;5072853;28;20531;-79
2023/07/25 09:47:38;;;;;;;2.13;0.90;;;;;;;;;;5073800;28;20064;-79
2023/07/25 09:50:07;;;;;;;5.13;1.20;;;;;;;;;;5056090;28;20060;-78
2023/07/25 09:52:42;;;;;;;1.77;1.00;;;;;;;;;;5074446;28;20055;-80
2023/07/25 09:55:08;;;;;;;3.17;1.05;;;;;;;;;;5055997;28;20024;-79
2023/07/25 09:57:34;;;;;;;17.60;1.10;;;;;;;;;;5072312;28;20364;-79
2023/07/25 10:00:01;;;;;;;3.67;1.08;;;;;;;;;;5055470;28;20079;-79
2023/07/25 10:02:26;;;;;;;3.90;1.17;;;;;;;;;;5072418;28;20534;-78
2023/07/25 10:04:53;;;;;;;3.47;0.93;;;;;;;;;;5073070;28;20067;-80
2023/07/25 10:07:18;;;;;;;9.02;0.82;;;;;;;;;;5072253;28;20052;-79
2023/07/25 10:09:47;;;;;;;3.70;0.70;;;;;;;;;;5071668;28;20076;-78
2023/07/25 10:12:12;;;;;;;5.47;1.15;;;;;;;;;;5055812;28;20103;-79
2023/07/25 10:14:38;;;;;;;2.47;0.98;;;;;;;;;;5088615;28;20059;-79
2023/07/25 10:17:05;;;;;;;4.78;0.60;;;;;;;;;;5071656;28;20032;-78
2023/07/25 10:19:49;;;;;;;4.10;0.65;;;;;;;;;;5071826;28;20029;-79
2023/07/25 10:22:14;;;;;;;;;;;;;;;;;;5073519;28;20048;-78
2023/07/25 10:24:40;;;;;;;2.23;0.70;;;;;;;;;;5109802;28;19966;-78
2023/07/25 10:27:09;;;;;;;1.77;0.77;;;;;;;;;;5076919;28;20314;-81
2023/07/25 10:29:38;;;;;;;1.85;0.63;;;;;;;;;;5075487;28;20020;-81
2023/07/25 10:32:05;;;;;;;0.77;0.47;;;;;;;;;;5075531;28;20029;-80
2023/07/25 10:35:00;;;;;;;1.17;0.68;;;;;;;;;;5075369;28;20024;-82
2023/07/25 10:37:40;;;;;;;2.58;0.65;;;;;;;;;;5075828;28;20029;-82
2023/07/25 10:40:16;;;;;;;1.13;0.75;;;;;;;;;;5092107;28;20020;-81
2023/07/25 10:42:46;;;;;;;1.35;0.60;;;;;;;;;;5075475;28;20020;-81
2023/07/25 10:45:27;;;;;;;2.10;0.80;;;;;;;;;;5075196;28;20020;-81
2023/07/25 10:47:52;;;;;;;1.42;0.57;;;;;;;;;;5076738;28;20043;-82
2023/07/25 10:50:28;;;;;;;1.02;0.57;;;;;;;;;;5076611;28;20029;-79
2023/07/25 10:52:54;;;;;;;1.65;0.80;;;;;;;;;;5074992;28;20123;-78
2023/07/25 10:55:19;;;;;;;4.97;0.60;;;;;;;;;;5075044;28;20055;-79
2023/07/25 10:58:10;;;;;;;1.05;0.65;;;;;;;;;;5076159;28;20111;-78
2023/07/25 11:00:36;;;;;;;1.75;0.88;;;;;;;;;;5075672;28;20048;-80
2023/07/25 11:03:30;;;;;;;0.98;0.55;;;;;;;;;;5074995;28;20029;-78
2023/07/25 11:06:08;;;;;;;1.38;0.73;;;;;;;;;;5075118;28;20459;-79
2023/07/25 11:08:34;;;;;;;1.67;0.70;;;;;;;;;;5076083;28;20446;-85
2023/07/25 11:11:04;;;;;;;6.18;1.15;;;;;;;;;;5075061;28;20024;-80
2023/07/25 11:13:34;;;;;;;3.20;0.70;;;;;;;;;;5054984;28;20078;-80
2023/07/25 11:16:04;;;;;;;3.30;0.77;;;;;;;;;;5055864;28;20082;-80
2023/07/25 11:18:36;;;;;;;1.83;0.90;;;;;;;;;;5057552;28;20032;-79
2023/07/25 11:21:03;;;;;;;7.10;0.80;;;;;;;;;;5074391;28;20494;-78
2023/07/25 11:23:29;;;;;;;2.90;0.52;;;;;;;;;;5075354;28;20085;-79
2023/07/25 11:25:56;;;;;;;1.85;0.95;;;;;;;;;;5074250;28;20479;-78
2023/07/25 11:28:22;;;;;;;4.15;0.60;;;;;;;;;;5090210;28;20471;-78
2023/07/25 11:30:47;;;;;;;1.30;0.60;;;;;;;;;;5095443;28;20027;-78
2023/07/25 11:33:13;;;;;;;1.75;0.80;;;;;;;;;;5076985;28;20036;-78
2023/07/25 11:35:38;;;;;;;1.90;0.80;;;;;;;;;;5094213;28;20028;-78
2023/07/25 11:38:04;;;;;;;2.08;0.60;;;;;;;;;;5095873;28;20032;-75
2023/07/25 11:40:29;;;;;;;5.82;1.45;;;;;;;;;;5094681;28;20035;-77
2023/07/25 11:42:56;;;;;;;2.90;0.70;;;;;;;;;;5094630;28;20020;-78
2023/07/25 11:45:22;;;;;;;5.45;1.27;;;;;;;;;;5078823;28;20474;-76
2023/07/25 11:47:50;;;;;;;5.40;1.02;;;;;;;;;;5077392;28;20059;-82
2023/07/25 11:50:16;;;;;;;2.30;1.02;;;;;;;;;;5094193;28;20441;-79
2023/07/25 11:52:44;;;;;;;2.67;1.00;;;;;;;;;;5094540;28;20066;-78
2023/07/25 11:55:10;;;;;;;2.10;0.80;;;;;;;;;;5094753;28;20020;-78
2023/07/25 11:57:37;;;;;;;3.78;0.93;;;;;;;;;;5094071;28;20486;-78
2023/07/25 12:00:06;;;;;;;2.80;0.77;;;;;;;;;;5093991;28;20028;-78
2023/07/25 12:02:42;;;;;;;1.73;0.85;;;;;;;;;;5077274;28;20024;-78
2023/07/25 12:05:08;;;;;;;11.68;1.90;;;;;;;;;;5094049;28;20020;-78
2023/07/25 12:08:02;;;;;;;5.88;1.85;;;;;;;;;;5093664;28;20024;-79
2023/07/25 12:10:37;;;;;;;4.97;1.60;;;;;;;;;;5093778;28;20445;-79
2023/07/25 12:13:03;;;;;;;11.90;2.03;;;;;;;;;;5095262;28;20040;-79
2023/07/25 12:15:51;;;;;;;6.35;1.65;;;;;;;;;;5095095;28;20032;-80
2023/07/25 12:18:25;;;;;;;6.85;1.90;;;;;;;;;;5096912;28;20063;-79
2023/07/25 12:20:51;;;;;;;7.47;1.60;;;;;;;;;;5096110;28;20024;-80
2023/07/25 12:23:16;;;;;;;7.90;1.80;;;;;;;;;;5095077;28;20031;-80
2023/07/25 12:25:42;;;;;;;5.55;1.80;;;;;;;;;;5093541;28;20470;-79
2023/07/25 12:28:08;;;;;;;5.35;1.63;;;;;;;;;;5093451;28;20032;-80
2023/07/25 12:30:33;;;;;;;12.35;1.35;;;;;;;;;;5076260;28;20023;-80
2023/07/25 12:32:58;;;;;;;6.60;1.70;;;;;;;;;;5093392;28;20034;-80
2023/07/25 12:35:24;;;;;;;7.53;1.63;;;;;;;;;;5093129;28;20379;-80
2023/07/25 12:37:49;;;;;;;7.97;1.42;;;;;;;;;;5094710;28;20032;-80
2023/07/25 12:40:15;;;;;;;5.78;1.20;;;;;;;;;;5093135;28;20028;-80
2023/07/25 12:42:40;;;;;;;5.10;1.30;;;;;;;;;;5093156;28;20030;-79
2023/07/25 12:45:06;;;;;;;4.70;1.40;;;;;;;;;;5094131;28;20107;-79
2023/07/25 12:47:33;;;;;;;5.05;1.27;;;;;;;;;;5094422;28;20224;-80
2023/07/25 12:49:59;;;;;;;3.95;1.27;;;;;;;;;;5076134;28;20020;-80
2023/07/25 12:52:24;;;;;;;1.92;1.10;;;;;;;;;;5093078;28;20391;-80
2023/07/25 12:54:49;;;;;;;2.10;1.02;;;;;;;;;;5094336;28;20085;-80
2023/07/25 12:57:15;;;;;;;0.90;0.63;;;;;;;;;;5092715;28;20144;-79
2023/07/25 12:59:40;;;;;;;1.60;0.80;;;;;;;;;;5093380;28;20135;-79
2023/07/25 13:02:06;;;;;;;2.53;1.00;;;;;;;;;;5092825;28;20447;-79
2023/07/25 13:04:31;;;;;;;1.48;0.77;;;;;;;;;;5059193;28;20077;-78
2023/07/25 13:06:57;;;;;;;2.35;0.75;;;;;;;;;;5093887;28;20024;-80
2023/07/25 13:09:22;;;;;;;2.15;1.02;;;;;;;;;;5092446;28;20125;-80
2023/07/25 13:11:47;;;;;;;1.17;0.77;;;;;;;;;;5094066;28;20532;-78
2023/07/25 13:14:13;;;;;;;6.07;1.00;;;;;;;;;;5093002;28;20039;-78
2023/07/25 13:16:38;;;;;;;1.83;0.98;;;;;;;;;;5093877;28;20027;-79
2023/07/25 13:19:04;;;;;;;1.58;0.82;;;;;;;;;;5092437;28;20024;-78
2023/07/25 13:21:29;;;;;;;1.33;0.80;;;;;;;;;;5094187;28;20076;-79
2023/07/25 13:23:55;;;;;;;1.35;0.75;;;;;;;;;;5093871;28;20130;-77
2023/07/25 13:26:20;;;;;;;0.50;0.50;;;;;;;;;;5093657;28;20032;-78
2023/07/25 13:28:45;;;;;;;2.30;0.60;;;;;;;;;;5092497;28;20106;-77
2023/07/25 13:31:11;;;;;;;2.28;0.82;;;;;;;;;;5092711;28;20028;-77
2023/07/25 13:33:36;;;;;;;1.58;0.63;;;;;;;;;;5093894;28;20024;-78
2023/07/25 13:36:01;;;;;;;0.43;0.43;;;;;;;;;;5092200;28;20032;-78
2023/07/25 13:38:27;;;;;;;2.25;0.50;;;;;;;;;;5092224;28;20118;-77
2023/07/25 13:40:52;;;;;;;1.05;0.70;;;;;;;;;;5093421;28;20425;-78
2023/07/25 13:43:18;;;;;;;0.57;0.50;;;;;;;;;;5075377;28;20059;-77
2023/07/25 13:45:43;;;;;;;1.08;0.50;;;;;;;;;;5093705;28;20150;-76
2023/07/25 13:48:09;;;;;;;4.65;0.65;;;;;;;;;;5075765;28;20031;-78
2023/07/25 13:50:34;;;;;;;0.77;0.55;;;;;;;;;;5075518;28;20020;-77
2023/07/25 13:53:00;;;;;;;1.58;0.70;;;;;;;;;;5092321;28;20475;-76
2023/07/25 13:55:25;;;;;;;0.60;0.47;;;;;;;;;;5093498;28;20027;-76
2023/07/25 13:57:50;;;;;;;2.25;0.57;;;;;;;;;;5093908;28;20032;-76
2023/07/25 14:00:17;;;;;;;0.93;0.57;;;;;;;;;;5096247;28;20032;-77
2023/07/25 14:02:43;;;;;;;0.63;0.47;;;;;;;;;;5096621;28;20031;-76
2023/07/25 14:05:08;;;;;;;0.70;0.70;;;;;;;;;;5097399;28;20390;-77
2023/07/25 14:07:34;;;;;;;0.80;0.55;;;;;;;;;;5097715;28;20032;-78
2023/07/25 14:09:59;;;;;;;2.33;0.60;;;;;;;;;;5097372;28;20047;-77
2023/07/25 14:12:25;;;;;;;2.00;0.80;;;;;;;;;;5096346;28;20028;-76
2023/07/25 14:14:51;;;;;;;1.35;0.60;;;;;;;;;;5097625;28;20544;-76
2023/07/25 14:17:16;;;;;;;0.40;0.40;;;;;;;;;;5096479;28;20024;-77
2023/07/25 14:19:42;;;;;;;1.10;0.52;;;;;;;;;;5096318;28;20481;-76
2023/07/25 14:22:07;;;;;;;0.55;0.38;;;;;;;;;;5076080;28;20028;-76
2023/07/25 14:24:33;;;;;;;0.32;0.32;;;;;;;;;;5075823;28;20036;-76
2023/07/25 14:26:58;;;;;;;1.75;0.43;;;;;;;;;;5076307;28;20024;-76
2023/07/25 14:29:24;;;;;;;0.50;0.50;;;;;;;;;;5076839;28;20017;-77
2023/07/25 14:31:49;;;;;;;1.58;0.52;;;;;;;;;;5076894;28;20115;-77
2023/07/25 14:34:15;;;;;;;2.47;0.52;;;;;;;;;;5075359;28;20024;-77
2023/07/25 14:36:40;;;;;;;1.75;0.60;;;;;;;;;;5058662;28;20058;-77
2023/07/25 14:39:06;;;;;;;1.92;0.60;;;;;;;;;;5076566;28;20028;-77